CSF6 weather

Ste-Marguerite Heliport
Ste-Marguerite, Quebec, Canada

Public forecast

Using degrees Celsius for public forecast. Weather courtesy of forecast.io.

Closest aviation weather report (METAR) to Ste-Marguerite Heliport

Closest report is Montreal International (Mirabel) Airport, 21.1 nm (39.1 km) S. Retrieved 2020/03/30 18:00 UTC (47 minutes ago):

CYMX 301800Z VRB03KT 3SM -RA BR BKN004 OVC010 02/02 A2989 RMK SF7SC1 SLP128

Closest aviation forecast (TAF) to Ste-Marguerite Heliport

Closest forecast is Montreal International (Mirabel) Airport, 21.1 nm (39.1 km) S. Retrieved 2020/03/30 18:42 UTC (5 minutes ago):

TAF CYMX 301738Z 3018/3118 05008KT 6SM -RA BR OVC004 TEMPO 3018/3022 21/2SM -RA BR OVC003 FM302200 05010G20KT 21/2SM -RA BR OVC003 TEMPO 3022/3105 6SM -RA BR OVC004 FM310500 05010G20KT 5SM -SN OVC008 FM310800 05010G20KT P6SM BKN012 OVC025 FM311200 05010G20KT P6SM FEW015 BKN040 FM311600 05008G18KT P6SM FEW025 BKN140 RMK NXT FCST BY 310000Z